Time;durP1;ratioP1;P1;durP2;ratioP2;P2;SDS_P1;SDS_P2;PMS_P1;PMS_P2;Temp;Humidity;BMP_temperature;BMP_pressure;BME280_temperature;BME280_humidity;BME280_pressure;Samples;Min_cycle;Max_cycle;Signal;HPM_P1;HPM_P2
2021/11/10 00:02:05;;;;;;;4.97;2.20;;;;;;;7.99;70.87;98873.34;4966145;28;20066;-69
2021/11/10 00:04:33;;;;;;;5.10;2.25;;;;;;;7.97;68.63;98875.59;4966624;28;20051;-68
2021/11/10 00:07:01;;;;;;;6.40;3.13;;;;;;;8.09;69.38;98851.88;4966513;28;20062;-69
2021/11/10 00:09:27;;;;;;;5.57;2.75;;;;;;;7.94;68.73;98804.47;4964151;28;20055;-69
2021/11/10 00:11:54;;;;;;;7.53;3.38;;;;;;;7.86;70.57;98810.72;4964514;28;20074;-69
2021/11/10 00:14:22;;;;;;;5.70;3.33;;;;;;;8.20;71.91;98863.50;4966560;28;20074;-69
2021/11/10 00:16:49;;;;;;;5.35;2.90;;;;;;;8.26;72.56;98873.31;4965323;28;20054;-70
2021/11/10 00:19:16;;;;;;;8.13;3.47;;;;;;;8.24;71.84;98875.56;4966062;28;20051;-69
2021/11/10 00:21:43;;;;;;;12.02;6.40;;;;;;;8.37;72.28;98877.47;4966254;28;20051;-68
2021/11/10 00:24:10;;;;;;;7.57;3.88;;;;;;;8.40;71.25;98871.34;4965854;28;20055;-69
2021/11/10 00:26:36;;;;;;;8.63;3.75;;;;;;;8.41;70.74;98870.22;4966156;28;20050;-69
2021/11/10 00:29:03;;;;;;;7.57;3.55;;;;;;;8.41;70.74;98875.75;4965321;28;20112;-69
2021/11/10 00:31:30;;;;;;;10.15;4.70;;;;;;;8.40;71.69;98874.91;4965622;28;20092;-68
2021/11/10 00:33:57;;;;;;;11.20;4.70;;;;;;;8.51;70.92;98872.72;4966314;28;20061;-69
2021/11/10 00:36:24;;;;;;;8.40;3.50;;;;;;;8.50;71.28;98884.91;4965482;28;20069;-69
2021/11/10 00:38:51;;;;;;;6.07;3.30;;;;;;;7.88;69.54;98838.81;4965270;28;20438;-68
2021/11/10 00:41:18;;;;;;;9.13;4.13;;;;;;;8.19;69.64;98883.97;4965478;28;20105;-67
2021/11/10 00:43:45;;;;;;;11.05;4.60;;;;;;;8.30;71.29;98890.91;4965655;28;20050;-67
2021/11/10 00:46:12;;;;;;;13.13;3.60;;;;;;;7.88;70.71;98894.00;4963801;28;20118;-69
2021/11/10 00:48:39;;;;;;;9.25;3.75;;;;;;;7.90;70.99;98864.16;4965464;28;20581;-68
2021/11/10 00:51:05;;;;;;;8.20;3.70;;;;;;;7.98;72.19;98885.50;4965661;28;20058;-68
2021/11/10 00:53:33;;;;;;;4.53;2.90;;;;;;;8.10;71.38;98885.78;4965914;28;20466;-69
2021/11/10 00:56:00;;;;;;;11.13;2.75;;;;;;;7.56;71.51;98862.66;4965277;28;20050;-67
2021/11/10 00:58:27;;;;;;;7.30;3.50;;;;;;;8.10;72.28;98892.13;4965049;28;20065;-69
2021/11/10 01:00:54;;;;;;;11.82;3.00;;;;;;;7.82;72.04;98857.44;4965093;28;20054;-70
2021/11/10 01:03:22;;;;;;;5.80;2.63;;;;;;;8.06;73.80;98895.81;4965321;28;20051;-69
2021/11/10 01:05:49;;;;;;;6.60;2.88;;;;;;;8.12;72.88;98891.81;4964794;28;20058;-70
2021/11/10 01:08:16;;;;;;;5.90;2.88;;;;;;;7.52;73.07;98803.72;4965442;28;20137;-69
2021/11/10 01:10:43;;;;;;;7.65;4.07;;;;;;;8.09;73.41;98901.56;4963961;28;20047;-68
2021/11/10 01:13:10;;;;;;;8.25;3.80;;;;;;;8.18;73.19;98893.34;4965528;28;20493;-68
2021/11/10 01:15:39;;;;;;;6.65;3.72;;;;;;;8.23;73.93;98913.41;4963609;28;20051;-68
2021/11/10 01:18:06;;;;;;;16.52;5.40;;;;;;;7.91;73.22;98854.75;4964950;28;20066;-69
2021/11/10 01:20:33;;;;;;;6.28;3.47;;;;;;;8.03;73.59;98896.44;4963480;28;20050;-69
2021/11/10 01:23:00;;;;;;;8.82;3.60;;;;;;;7.14;74.26;98835.38;4964777;28;20047;-69
2021/11/10 01:25:27;;;;;;;12.07;4.40;;;;;;;7.71;76.01;98895.44;4963752;28;20076;-68
2021/11/10 01:27:54;;;;;;;9.27;3.88;;;;;;;7.08;77.21;98858.59;4964858;28;20465;-68
2021/11/10 01:30:22;;;;;;;7.40;2.97;;;;;;;7.39;78.57;98909.31;4963824;28;20491;-70
2021/11/10 01:32:49;;;;;;;4.70;2.30;;;;;;;7.08;78.13;98891.69;4964736;28;20050;-68
2021/11/10 01:35:17;;;;;;;3.95;2.03;;;;;;;7.14;78.39;98904.28;4963426;28;20504;-68
2021/11/10 01:37:44;;;;;;;6.75;3.20;;;;;;;6.87;78.69;98862.03;4962882;28;20069;-68
2021/11/10 01:40:13;;;;;;;4.72;2.47;;;;;;;6.46;79.32;98825.28;4963005;28;20423;-68
2021/11/10 01:42:42;;;;;;;5.60;2.58;;;;;;;6.75;79.81;98887.28;4962848;28;20472;-67
2021/11/10 01:45:12;;;;;;;6.28;2.63;;;;;;;6.34;81.30;98880.78;4962952;28;20728;-67
2021/11/10 01:47:39;;;;;;;5.93;3.28;;;;;;;6.56;82.04;98900.28;4964743;28;20055;-68
2021/11/10 01:50:11;;;;;;;5.35;3.00;;;;;;;6.79;81.13;98917.81;4964374;28;20458;-68
2021/11/10 01:52:38;;;;;;;6.57;3.17;;;;;;;6.75;81.01;98931.34;4964839;28;20055;-68
2021/11/10 01:55:06;;;;;;;6.72;3.30;;;;;;;6.35;81.13;98854.91;4964442;28;20059;-70
2021/11/10 01:57:34;;;;;;;7.93;2.78;;;;;;;6.68;81.07;98925.44;4964506;28;20050;-69
2021/11/10 02:00:06;;;;;;;6.72;2.85;;;;;;;6.60;81.47;98930.78;4963080;28;20059;-68
2021/11/10 02:02:33;;;;;;;6.05;3.03;;;;;;;6.61;81.55;98926.94;4964451;28;20138;-70
2021/11/10 02:05:00;;;;;;;16.08;6.32;;;;;;;6.54;82.28;98923.72;4964706;28;20058;-69
2021/11/10 02:07:27;;;;;;;9.18;4.15;;;;;;;5.40;82.53;98760.84;4964588;28;20059;-69
2021/11/10 02:09:54;;;;;;;11.15;4.18;;;;;;;6.44;83.26;98930.19;4964188;28;20058;-69
2021/11/10 02:12:21;;;;;;;10.85;4.28;;;;;;;6.17;82.77;98902.50;4962852;28;20065;-69
2021/11/10 02:14:48;;;;;;;7.50;3.92;;;;;;;6.02;83.60;98910.97;4964317;28;20532;-69
2021/11/10 02:17:17;;;;;;;6.40;3.60;;;;;;;6.15;84.28;98935.00;4964121;28;20051;-69
2021/11/10 02:19:44;;;;;;;7.85;4.25;;;;;;;6.25;84.25;98926.63;4964505;28;20069;-69
2021/11/10 02:22:16;;;;;;;10.73;5.35;;;;;;;6.07;85.17;98914.47;4962764;28;20151;-69
2021/11/10 02:24:45;;;;;;;8.27;4.20;;;;;;;6.10;84.82;98935.88;4964553;28;20051;-69
2021/11/10 02:27:21;;;;;;;12.30;5.28;;;;;;;5.16;85.76;98814.97;4963282;28;20061;-68
2021/11/10 02:29:50;;;;;;;10.85;5.43;;;;;;;5.83;84.78;98945.88;4965108;28;20054;-69
2021/11/10 02:32:18;;;;;;;9.15;3.78;;;;;;;5.73;85.09;98945.97;4963474;28;20066;-69
2021/11/10 02:34:47;;;;;;;8.23;3.47;;;;;;;5.70;84.55;98938.28;4967924;28;20510;-67
2021/11/10 02:37:20;;;;;;;3.97;2.28;;;;;;;5.54;84.52;98920.34;4967738;28;20061;-68
2021/11/10 02:39:49;;;;;;;;;;;;;;;5.52;86.33;98944.53;4968289;28;20053;-68
2021/11/10 02:42:17;;;;;;;6.18;3.70;;;;;;;5.52;86.55;98941.78;4967461;28;20329;-67
2021/11/10 02:44:47;;;;;;;7.30;2.88;;;;;;;5.28;87.82;98940.97;4968071;28;20059;-67
2021/11/10 02:47:15;;;;;;;7.40;3.08;;;;;;;5.24;87.95;98948.13;4968203;28;20507;-67
2021/11/10 02:49:42;;;;;;;5.95;2.67;;;;;;;5.07;89.17;98961.47;4967535;28;20540;-67
2021/11/10 02:52:12;;;;;;;5.88;2.70;;;;;;;4.86;90.97;98946.28;4967553;28;20064;-67
2021/11/10 02:54:43;;;;;;;4.50;2.80;;;;;;;4.95;90.95;98950.06;4966194;28;20438;-69
2021/11/10 02:57:10;;;;;;;7.43;3.67;;;;;;;4.88;91.25;98955.88;4967302;28;20063;-67
2021/11/10 02:59:38;;;;;;;6.45;2.95;;;;;;;4.87;90.91;98958.91;4967464;28;20063;-67
2021/11/10 03:02:06;;;;;;;7.05;2.70;;;;;;;4.69;91.17;98957.66;4967295;28;20065;-68
2021/11/10 03:04:36;;;;;;;4.35;2.08;;;;;;;4.72;90.53;98956.25;4966077;28;20046;-67
2021/11/10 03:07:04;;;;;;;5.55;2.55;;;;;;;4.61;90.85;98964.59;4967978;28;20059;-68
2021/11/10 03:09:32;;;;;;;5.40;2.38;;;;;;;4.51;92.36;98939.94;4967525;28;20050;-67
2021/11/10 03:12:01;;;;;;;8.13;2.90;;;;;;;4.52;92.13;98952.56;4967397;28;20133;-67
2021/11/10 03:14:30;;;;;;;6.75;2.63;;;;;;;4.43;92.30;98948.78;4966899;28;20577;-67
2021/11/10 03:16:58;;;;;;;4.53;2.35;;;;;;;3.24;93.49;98769.38;4966993;28;20058;-67
2021/11/10 03:19:26;;;;;;;10.38;3.50;;;;;;;4.35;91.69;98946.63;4966684;28;20489;-67
2021/11/10 03:21:53;;;;;;;10.00;3.63;;;;;;;3.93;90.64;98894.25;4965860;28;20441;-69
2021/11/10 03:24:20;;;;;;;9.73;4.30;;;;;;;4.15;91.17;98918.50;4967071;28;20055;-68
2021/11/10 03:26:47;;;;;;;4.90;2.60;;;;;;;4.25;92.30;98957.66;4967133;28;20062;-68
2021/11/10 03:29:14;;;;;;;4.88;2.42;;;;;;;1.88;91.99;98574.84;4965688;28;20077;-69
2021/11/10 03:31:41;;;;;;;4.90;2.33;;;;;;;4.33;92.68;98948.84;4966579;28;20051;-69
2021/11/10 03:34:11;;;;;;;6.00;2.92;;;;;;;3.85;91.26;98861.94;4965247;28;20055;-67
2021/11/10 03:36:40;;;;;;;9.02;3.53;;;;;;;4.36;90.26;98952.94;4966936;28;20065;-68
2021/11/10 03:39:09;;;;;;;12.13;6.88;;;;;;;4.43;90.53;98948.78;4965323;28;20062;-69
2021/11/10 03:41:37;;;;;;;25.15;9.95;;;;;;;4.51;91.48;98958.31;4965850;28;20054;-69
2021/11/10 03:44:04;;;;;;;11.63;4.30;;;;;;;4.45;90.83;98956.72;4965937;28;20068;-68
2021/11/10 03:46:31;;;;;;;7.68;2.47;;;;;;;4.45;89.42;98946.59;4966508;28;20054;-69
2021/11/10 03:48:59;;;;;;;5.68;2.70;;;;;;;3.71;89.32;98847.22;4966559;28;20055;-70
2021/11/10 03:51:27;;;;;;;12.07;4.40;;;;;;;3.90;88.39;98852.84;4966772;28;20513;-70
2021/11/10 03:53:54;;;;;;;8.73;3.33;;;;;;;4.39;88.42;98936.72;4965302;28;20065;-69
2021/11/10 03:56:22;;;;;;;6.25;2.72;;;;;;;4.28;89.12;98924.16;4966743;28;20074;-69
2021/11/10 03:58:49;;;;;;;7.22;2.97;;;;;;;3.98;88.00;98890.63;4966268;28;20062;-68
2021/11/10 04:01:16;;;;;;;11.13;4.25;;;;;;;4.20;89.88;98938.50;4965189;28;20047;-69
2021/11/10 04:03:43;;;;;;;12.55;5.03;;;;;;;4.00;91.14;98938.59;4966440;28;20051;-70
2021/11/10 04:06:11;;;;;;;17.23;7.82;;;;;;;4.11;90.85;98936.66;4966371;28;20069;-69
2021/11/10 04:08:38;;;;;;;17.55;6.20;;;;;;;3.97;90.86;98941.91;4965821;28;20059;-69
2021/11/10 04:11:05;;;;;;;8.20;3.88;;;;;;;3.38;92.21;98891.75;4965931;28;20104;-69
2021/11/10 04:13:32;;;;;;;6.65;3.25;;;;;;;3.54;92.33;98933.59;4966150;28;20382;-69
2021/11/10 04:16:00;;;;;;;8.63;3.83;;;;;;;3.52;92.65;98900.16;4964509;28;20050;-69
2021/11/10 04:18:32;;;;;;;5.55;2.55;;;;;;;3.15;92.20;98864.16;4964144;28;20058;-69
2021/11/10 04:21:05;;;;;;;9.30;3.65;;;;;;;2.99;92.31;98864.19;4964550;28;20055;-68
2021/11/10 04:23:33;;;;;;;3.97;1.80;;;;;;;3.00;94.09;98906.06;4964512;28;20061;-68
2021/11/10 04:26:03;;;;;;;4.40;2.00;;;;;;;2.66;93.72;98853.00;4964626;28;20147;-68
2021/11/10 04:28:31;;;;;;;4.35;1.85;;;;;;;3.21;95.13;98935.03;4964885;28;20062;-68
2021/11/10 04:30:58;;;;;;;10.98;3.00;;;;;;;3.30;94.64;98927.06;4962888;28;20086;-69
2021/11/10 04:33:27;;;;;;;4.00;2.47;;;;;;;3.26;94.27;98932.28;4965543;28;20097;-69
2021/11/10 04:35:54;;;;;;;8.77;3.25;;;;;;;2.64;94.98;98847.00;4965976;28;20109;-68
2021/11/10 04:38:21;;;;;;;6.22;2.83;;;;;;;3.23;95.53;98932.84;4964282;28;20050;-68
2021/11/10 04:40:48;;;;;;;8.07;2.72;;;;;;;3.25;94.67;98929.81;4963876;28;20054;-69
2021/11/10 04:43:15;;;;;;;5.30;2.88;;;;;;;3.24;94.06;98928.19;4964480;28;20066;-68
2021/11/10 04:45:44;;;;;;;5.32;2.17;;;;;;;3.22;94.76;98928.47;4963897;28;20050;-68
2021/11/10 04:48:11;;;;;;;4.60;2.40;;;;;;;2.74;92.78;98872.44;4964631;28;20061;-69
2021/11/10 04:50:38;;;;;;;95.93;23.48;;;;;;;3.26;92.17;98932.28;4965215;28;20059;-68
2021/11/10 04:53:05;;;;;;;85.22;21.30;;;;;;;2.64;93.38;98841.53;4965365;28;20059;-68
2021/11/10 04:55:32;;;;;;;35.47;11.07;;;;;;;3.15;92.29;98914.22;4965011;28;20439;-68
2021/11/10 04:57:59;;;;;;;26.10;9.10;;;;;;;3.32;91.24;98953.06;4965104;28;20050;-68
2021/11/10 05:00:26;;;;;;;12.95;4.75;;;;;;;2.49;92.01;98834.16;4964816;28;20100;-68
2021/11/10 05:02:53;;;;;;;14.63;7.10;;;;;;;3.12;93.73;98947.63;4965179;28;20053;-68
2021/11/10 05:05:21;;;;;;;17.48;7.85;;;;;;;2.95;95.39;98941.66;4964814;28;20062;-68
2021/11/10 05:07:49;;;;;;;15.02;6.70;;;;;;;2.88;96.20;98947.38;4965423;28;20054;-67
2021/11/10 05:10:17;;;;;;;12.40;6.35;;;;;;;3.04;96.87;98956.41;4965021;28;20051;-67
2021/11/10 05:12:44;;;;;;;18.38;7.13;;;;;;;3.07;95.69;98953.13;4964497;28;20047;-69
2021/11/10 05:15:12;;;;;;;15.73;6.05;;;;;;;2.97;96.25;98950.41;4964598;28;20499;-69
2021/11/10 05:17:39;;;;;;;9.80;4.93;;;;;;;3.04;94.95;98950.94;4962928;28;20055;-69
2021/11/10 05:20:06;;;;;;;8.57;4.40;;;;;;;2.87;94.97;98962.19;4964480;28;20430;-69
2021/11/10 05:22:37;;;;;;;17.92;9.15;;;;;;;2.56;95.98;98915.94;4965259;28;20086;-67
2021/11/10 05:25:05;;;;;;;18.40;7.07;;;;;;;3.00;94.34;98950.66;4965070;28;20417;-68
2021/11/10 05:27:32;;;;;;;15.70;7.47;;;;;;;2.94;95.67;98967.38;4963985;28;20074;-69
2021/11/10 05:29:59;;;;;;;14.15;6.00;;;;;;;1.54;95.90;98750.22;4964329;28;20063;-67
2021/11/10 05:32:26;;;;;;;13.35;6.00;;;;;;;3.09;95.34;98976.41;4963624;28;20054;-68
2021/11/10 05:34:52;;;;;;;14.70;6.30;;;;;;;2.30;94.93;98832.25;4964704;28;20434;-69
2021/11/10 05:37:20;;;;;;;9.57;5.20;;;;;;;2.89;94.26;98926.31;4964999;28;20070;-70
2021/11/10 05:39:46;;;;;;;18.75;5.95;;;;;;;3.41;94.12;98984.31;4962941;28;20541;-69
2021/11/10 05:42:13;;;;;;;20.27;8.73;;;;;;;3.14;92.24;98945.47;4962647;28;20600;-69
2021/11/10 05:44:41;;;;;;;14.35;6.80;;;;;;;3.35;90.75;98925.13;4963492;28;20062;-69
2021/11/10 05:47:09;;;;;;;19.67;8.65;;;;;;;3.80;90.53;98988.03;4964614;28;20062;-69
2021/11/10 05:49:38;;;;;;;17.48;9.27;;;;;;;3.83;91.12;98998.44;4963353;28;20108;-70
2021/11/10 05:52:07;;;;;;;24.55;9.80;;;;;;;3.94;90.58;99005.53;4964680;28;20059;-69
2021/11/10 05:54:34;;;;;;;13.15;6.85;;;;;;;4.00;88.56;99004.41;4963222;28;20055;-67
2021/11/10 05:57:01;;;;;;;12.50;5.88;;;;;;;3.91;87.33;98966.88;4962784;28;20050;-67
2021/11/10 05:59:28;;;;;;;8.45;4.55;;;;;;;4.28;86.22;99011.94;4964242;28;20194;-68
2021/11/10 06:01:56;;;;;;;60.85;17.83;;;;;;;4.14;85.14;98961.56;4964633;28;20059;-69
2021/11/10 06:04:23;;;;;;;45.90;19.40;;;;;;;4.52;84.90;99007.44;4964420;28;20066;-69
2021/11/10 06:06:50;;;;;;;44.92;18.08;;;;;;;4.41;85.21;99003.13;4964463;28;20089;-69
2021/11/10 06:09:16;;;;;;;29.05;13.85;;;;;;;4.60;84.49;99015.06;4967200;28;20063;-69
2021/11/10 06:11:45;;;;;;;30.42;12.65;;;;;;;4.38;84.04;98979.00;4967055;28;20054;-69
2021/11/10 06:14:12;;;;;;;22.40;12.30;;;;;;;4.82;83.84;99022.88;4967961;28;20161;-69
2021/11/10 06:16:39;;;;;;;26.15;11.15;;;;;;;4.29;83.90;98936.81;4968256;28;20047;-69
2021/11/10 06:19:07;;;;;;;25.33;11.05;;;;;;;4.90;83.63;99018.75;4968255;28;20054;-69
2021/11/10 06:21:34;;;;;;;25.90;12.30;;;;;;;4.48;82.82;98935.03;4968357;28;20057;-69
2021/11/10 06:24:01;;;;;;;43.40;15.65;;;;;;;5.25;81.93;99026.72;4968306;28;20065;-68
2021/11/10 06:26:28;;;;;;;118.40;33.42;;;;;;;4.68;80.49;98944.22;4964867;28;20129;-61
2021/11/10 06:28:54;;;;;;;99.30;29.77;;;;;;;2.92;79.48;98586.41;4966056;28;20090;-64
2021/11/10 06:31:21;;;;;;;70.80;23.60;;;;;;;5.91;78.02;99025.00;4967512;28;20443;-65
2021/11/10 06:33:51;;;;;;;45.70;15.57;;;;;;;6.05;77.50;99025.94;4967367;28;20605;-64
2021/11/10 06:36:18;;;;;;;37.95;14.57;;;;;;;3.26;76.70;98543.44;4955338;28;20459;-69
2021/11/10 06:38:46;;;;;;;17.40;8.07;;;;;;;5.46;77.80;98885.25;4966170;28;20061;-69
2021/11/10 06:41:19;;;;;;;11.52;6.57;;;;;;;6.07;76.19;98955.75;4955855;28;20047;-67
2021/11/10 06:43:47;;;;;;;11.32;5.40;;;;;;;6.65;74.65;99036.19;4966578;28;20860;-69
2021/11/10 06:46:14;;;;;;;30.17;14.23;;;;;;;6.79;73.33;99034.31;4962433;28;20061;-66
2021/11/10 06:48:41;;;;;;;32.58;15.20;;;;;;;6.65;73.42;98967.34;4958885;28;20047;-70
2021/11/10 06:51:08;;;;;;;17.77;8.23;;;;;;;7.21;73.91;99011.34;4965270;28;20537;-68
2021/11/10 06:53:35;;;;;;;14.98;7.72;;;;;;;6.60;72.06;98917.84;4966881;28;20061;-70
2021/11/10 06:56:02;;;;;;;15.70;7.25;;;;;;;7.08;73.05;98988.13;4964415;28;20054;-64
2021/11/10 06:58:29;;;;;;;21.20;10.45;;;;;;;4.83;72.91;98584.47;4966731;28;20073;-63
2021/11/10 07:00:56;;;;;;;11.23;5.53;;;;;;;7.71;73.58;99022.31;4954201;28;20050;-63
2021/11/10 07:03:23;;;;;;;13.00;6.70;;;;;;;7.96;72.14;99020.22;4958939;28;20055;-66
2021/11/10 07:05:50;;;;;;;11.25;5.97;;;;;;;8.07;70.55;99018.88;4959099;28;20055;-62
2021/11/10 07:08:17;;;;;;;14.50;7.25;;;;;;;7.66;71.36;98941.63;4964209;28;20051;-65
2021/11/10 07:10:44;;;;;;;22.48;9.82;;;;;;;8.41;69.42;99019.34;4953495;28;20046;-68
2021/11/10 07:13:10;;;;;;;22.02;9.90;;;;;;;8.31;68.43;99019.53;4947558;28;20051;-67
2021/11/10 07:15:37;;;;;;;19.60;8.68;;;;;;;8.62;67.89;99015.00;4946168;29;20451;-64
2021/11/10 07:18:04;;;;;;;27.52;13.27;;;;;;;7.80;68.47;98872.66;4960574;28;20055;-66
2021/11/10 07:20:31;;;;;;;243.00;74.43;;;;;;;7.75;67.97;98840.47;4962022;28;20065;-64
2021/11/10 07:23:01;;;;;;;711.30;273.52;;;;;;;8.40;68.36;98974.34;4961278;28;20055;-68
2021/11/10 07:25:28;;;;;;;334.33;112.63;;;;;;;8.96;67.92;98982.19;4966405;28;20318;-66
2021/11/10 07:27:55;;;;;;;140.15;48.65;;;;;;;8.30;66.35;98853.06;4966516;28;20061;-69
2021/11/10 07:30:22;;;;;;;44.60;18.85;;;;;;;9.46;64.67;99022.41;4965926;28;20142;-73
2021/11/10 07:32:49;;;;;;;37.83;14.13;;;;;;;9.46;63.77;99022.41;4953114;28;20058;-64
2021/11/10 07:35:16;;;;;;;28.92;12.52;;;;;;;9.17;63.51;98950.97;4962758;28;20051;-61
2021/11/10 07:37:45;;;;;;;41.45;17.85;;;;;;;9.61;63.04;99038.63;4965135;28;20056;-65
2021/11/10 07:40:13;;;;;;;25.92;12.48;;;;;;;9.27;61.39;98938.81;4964288;28;20051;-62
2021/11/10 07:42:42;;;;;;;27.35;11.75;;;;;;;9.21;60.94;98893.09;4965308;28;20050;-67
2021/11/10 07:45:33;;;;;;;53.30;20.27;;;;;;;10.15;58.96;99021.69;4965289;28;20061;-68
2021/11/10 07:47:56;;;;;;;53.83;22.42;;;;;;;9.64;59.48;98937.56;4966488;28;20153;-68
2021/11/10 07:50:24;;;;;;;44.25;17.63;;;;;;;10.20;57.95;98968.13;4965199;28;20055;-70
2021/11/10 07:52:52;;;;;;;38.67;16.35;;;;;;;9.26;58.17;98881.06;4965788;28;20051;-64
2021/11/10 07:55:19;;;;;;;47.53;18.52;;;;;;;9.81;60.67;99015.97;4965786;28;20055;-64
2021/11/10 07:57:46;;;;;;;25.52;11.65;;;;;;;9.07;59.56;98839.81;4964827;28;20086;-66
2021/11/10 08:00:33;;;;;;;7.40;4.47;;;;;;;9.21;59.97;98976.03;4965093;28;20054;-67
2021/11/10 08:03:00;;;;;;;6.00;3.38;;;;;;;9.47;60.52;99015.75;4964647;28;20073;-71
2021/11/10 08:05:26;;;;;;;10.07;4.35;;;;;;;9.94;58.94;99012.28;4964906;28;20051;-67
2021/11/10 08:07:53;;;;;;;7.85;4.03;;;;;;;9.38;57.87;98879.34;4964897;28;20061;-66
2021/11/10 08:10:40;;;;;;;7.40;3.78;;;;;;;10.39;57.98;99004.69;4964336;28;20046;-66
2021/11/10 08:13:07;;;;;;;4.78;3.00;;;;;;;10.11;58.16;99020.72;4964163;28;20051;-66
2021/11/10 08:15:35;;;;;;;5.43;2.83;;;;;;;8.91;58.54;98891.91;4963573;28;20055;-68
2021/11/10 08:18:04;;;;;;;3.15;2.08;;;;;;;9.70;59.00;99014.59;4963236;28;20528;-62
2021/11/10 08:20:31;;;;;;;3.78;2.78;;;;;;;8.87;58.64;98812.69;4965815;28;20442;-68
2021/11/10 08:22:57;;;;;;;3.60;2.67;;;;;;;9.14;57.55;98841.00;4963217;28;20437;-65
2021/11/10 08:25:24;;;;;;;3.80;2.67;;;;;;;9.08;58.10;98940.97;4959001;28;20053;-71
2021/11/10 08:27:54;;;;;;;7.05;2.65;;;;;;;9.53;58.98;99014.47;4960370;28;20063;-66
2021/11/10 08:30:21;;;;;;;12.15;7.15;;;;;;;10.00;58.36;99011.03;4964987;28;20473;-64
2021/11/10 08:32:51;;;;;;;3.28;2.50;;;;;;;10.43;56.22;99012.00;4979238;28;20047;-65
2021/11/10 08:35:19;;;;;;;5.45;2.80;;;;;;;10.23;56.63;98973.84;4963457;28;20059;-65
2021/11/10 08:37:46;;;;;;;3.95;2.70;;;;;;;10.67;55.28;99023.50;4964491;28;20081;-64
2021/11/10 08:40:13;;;;;;;2.97;2.22;;;;;;;10.36;54.65;98939.66;4953530;28;20055;-67
2021/11/10 08:42:40;;;;;;;3.63;2.28;;;;;;;10.55;54.76;98956.81;4962800;28;20150;-63
2021/11/10 08:45:19;;;;;;;2.42;1.77;;;;;;;11.20;53.42;98994.69;4963817;28;20057;-66
2021/11/10 08:47:49;;;;;;;5.63;2.20;;;;;;;9.19;52.86;98666.69;4962745;28;20448;-65
2021/11/10 08:50:18;;;;;;;3.33;2.13;;;;;;;10.99;53.09;99013.09;4964124;28;20054;-65
2021/11/10 08:52:46;;;;;;;3.85;2.67;;;;;;;10.99;54.14;99002.00;4964707;28;20489;-67
2021/11/10 08:55:15;;;;;;;3.60;2.55;;;;;;;11.31;53.09;99002.34;4963373;28;20529;-67
2021/11/10 08:57:44;;;;;;;15.95;9.00;;;;;;;11.63;52.96;99003.81;4964096;28;20497;-67
2021/11/10 09:00:14;;;;;;;5.20;3.50;;;;;;;11.71;52.52;98980.78;4964528;28;20066;-69
2021/11/10 09:02:42;;;;;;;3.78;2.38;;;;;;;11.93;50.77;98994.44;4964892;28;20055;-63
2021/11/10 09:05:10;;;;;;;4.45;2.63;;;;;;;11.96;50.32;98991.81;4964813;28;20058;-73
2021/11/10 09:07:36;;;;;;;3.22;2.50;;;;;;;10.83;49.88;98792.94;4963149;28;20166;-65
2021/11/10 09:10:09;;;;;;;3.85;2.33;;;;;;;11.77;49.72;98996.94;4964709;28;20565;-65
2021/11/10 09:12:37;;;;;;;3.60;2.50;;;;;;;11.97;49.36;98989.84;4963438;28;20070;-67
2021/11/10 09:15:07;;;;;;;3.20;2.20;;;;;;;11.55;49.25;98943.56;4964345;28;20090;-68
2021/11/10 09:17:35;;;;;;;3.65;2.75;;;;;;;11.77;48.87;98979.44;4963724;28;20051;-65
2021/11/10 09:20:05;;;;;;;3.70;2.55;;;;;;;11.48;49.79;98893.28;4954767;28;20616;-63
2021/11/10 09:22:32;;;;;;;3.13;2.40;;;;;;;11.22;48.05;98789.91;4959024;28;20047;-70
2021/11/10 09:24:58;;;;;;;4.47;2.67;;;;;;;12.60;48.33;98964.69;4962393;28;20054;-66
2021/11/10 09:27:25;;;;;;;3.28;2.72;;;;;;;12.78;49.06;98966.19;4963670;28;20135;-65
2021/11/10 09:29:53;;;;;;;5.32;3.15;;;;;;;13.05;47.48;98965.69;4964030;28;20057;-67
2021/11/10 09:32:20;;;;;;;4.53;2.63;;;;;;;12.97;46.22;98957.38;4962165;28;20430;-68
2021/11/10 09:34:47;;;;;;;4.65;3.30;;;;;;;12.78;47.33;98912.53;4962950;28;20054;-66
2021/11/10 09:37:14;;;;;;;4.43;3.03;;;;;;;13.08;46.13;98928.84;4962814;28;20055;-66
2021/11/10 09:39:40;;;;;;;5.28;2.72;;;;;;;12.27;46.02;98819.22;4963553;28;20111;-62
2021/11/10 09:42:08;;;;;;;6.30;2.92;;;;;;;12.35;46.36;98868.38;4963221;28;20058;-71
2021/11/10 09:44:35;;;;;;;4.25;2.55;;;;;;;10.56;46.11;98566.88;4964289;28;20506;-69
2021/11/10 09:47:03;;;;;;;2.97;2.42;;;;;;;11.91;47.77;98836.47;4962697;28;20448;-64
2021/11/10 09:49:31;;;;;;;4.05;2.80;;;;;;;12.23;47.57;98882.97;4962751;28;20066;-70
2021/11/10 09:51:59;;;;;;;6.45;3.67;;;;;;;11.85;47.07;98815.59;4964215;28;20137;-68
2021/11/10 09:54:27;;;;;;;3.75;2.53;;;;;;;12.34;45.77;98832.59;4964181;28;20098;-62
2021/11/10 09:56:55;;;;;;;3.95;2.78;;;;;;;13.04;47.19;98919.53;4964060;28;20133;-63
2021/11/10 09:59:23;;;;;;;3.60;2.40;;;;;;;12.80;46.38;98913.84;4963187;28;20109;-63
2021/11/10 10:01:50;;;;;;;3.22;2.70;;;;;;;11.77;46.78;98779.53;4962640;28;20054;-63
2021/11/10 10:04:18;;;;;;;5.50;2.88;;;;;;;12.35;47.19;98846.13;4964495;28;20097;-66
2021/11/10 10:06:45;;;;;;;5.80;2.63;;;;;;;12.29;47.62;98869.72;4964222;28;20047;-65
2021/11/10 10:09:12;;;;;;;2.70;2.30;;;;;;;11.97;47.40;98787.91;4962559;28;20046;-67
2021/11/10 10:11:39;;;;;;;3.72;2.58;;;;;;;12.89;46.88;98895.09;4964302;28;20059;-67
2021/11/10 10:14:06;;;;;;;3.60;2.60;;;;;;;13.04;46.55;98897.28;4962978;28;20433;-68
2021/11/10 10:16:35;;;;;;;3.83;2.33;;;;;;;12.94;46.45;98891.28;4964400;28;20054;-68
2021/11/10 10:19:12;;;;;;;4.57;3.42;;;;;;;12.53;46.72;98746.75;4964037;28;20062;-67
2021/11/10 10:21:43;;;;;;;2.78;2.47;;;;;;;12.67;45.74;98775.88;4963573;28;20096;-68
2021/11/10 10:24:13;;;;;;;5.35;3.17;;;;;;;12.90;46.49;98868.91;4962220;28;20106;-68
2021/11/10 10:26:41;;;;;;;3.60;2.10;;;;;;;12.82;45.44;98864.22;4964223;28;20504;-68
2021/11/10 10:29:12;;;;;;;4.63;2.83;;;;;;;13.27;46.24;98856.81;4962437;28;20063;-68
2021/11/10 10:31:41;;;;;;;6.10;2.65;;;;;;;13.53;45.39;98860.09;4963995;28;20138;-68
2021/11/10 10:34:15;;;;;;;4.05;2.45;;;;;;;13.06;45.16;98839.34;4964516;28;20076;-67
2021/11/10 10:36:45;;;;;;;4.60;3.10;;;;;;;12.87;44.51;98813.13;4962544;28;20055;-67
2021/11/10 10:39:19;;;;;;;3.58;2.42;;;;;;;12.52;44.08;98690.31;4963194;28;20094;-67
2021/11/10 10:41:51;;;;;;;3.63;2.67;;;;;;;11.60;44.05;98565.88;4960623;28;20058;-69
2021/11/10 10:44:22;;;;;;;3.20;2.47;;;;;;;13.66;44.70;98831.09;4944397;28;20090;-67
2021/11/10 10:47:01;;;;;;;8.43;4.03;;;;;;;13.70;44.52;98826.47;4944492;28;20521;-65
2021/11/10 10:49:38;;;;;;;4.18;2.65;;;;;;;13.56;44.34;98814.84;4944399;29;20055;-66
2021/11/10 10:52:18;;;;;;;5.50;3.85;;;;;;;13.30;44.38;98733.63;4944416;28;20062;-65
2021/11/10 10:54:48;;;;;;;2.72;2.50;;;;;;;13.47;44.62;98755.69;4947781;28;20059;-63
2021/11/10 10:57:19;;;;;;;2.90;2.60;;;;;;;13.72;43.14;98789.09;4948340;28;20066;-63
2021/11/10 10:59:47;;;;;;;2.80;2.13;;;;;;;12.51;43.80;98610.06;4966732;28;20558;-63
2021/11/10 11:02:15;;;;;;;3.60;2.70;;;;;;;13.68;43.61;98777.84;4966341;28;20721;-63
2021/11/10 11:04:45;;;;;;;3.78;3.13;;;;;;;13.64;44.28;98794.44;4966965;28;20054;-63
2021/11/10 11:07:12;;;;;;;2.92;2.28;;;;;;;13.76;44.31;98803.94;4966729;28;20449;-62
2021/11/10 11:09:50;;;;;;;3.00;2.72;;;;;;;14.04;43.67;98793.69;4968486;28;20062;-66
2021/11/10 11:12:21;;;;;;;3.13;2.55;;;;;;;14.25;43.50;98791.63;4961033;28;20081;-65
2021/11/10 11:17:31;;;;;;;4.90;3.42;;;;;;;14.61;43.05;98783.16;4952055;28;20056;-61
2021/11/10 11:20:27;;;;;;;5.40;3.58;;;;;;;14.59;42.16;98779.91;4966726;28;20073;-65
2021/11/10 11:22:56;;;;;;;30.90;8.88;;;;;;;13.25;42.32;98586.34;4947278;28;20437;-66
2021/11/10 11:25:28;;;;;;;9.88;4.00;;;;;;;14.46;42.81;98742.09;4960083;28;20066;-66
2021/11/10 11:27:55;;;;;;;9.05;4.63;;;;;;;14.65;42.39;98761.75;4966241;28;20562;-68
2021/11/10 11:30:27;;;;;;;9.90;4.65;;;;;;;14.28;41.75;98693.34;4965097;28;20157;-63
2021/11/10 11:32:57;;;;;;;5.43;3.30;;;;;;;14.74;41.65;98756.81;4961692;28;20074;-63
2021/11/10 11:35:30;;;;;;;2.70;2.50;;;;;;;14.32;41.26;98761.19;4955006;28;20061;-63
2021/11/10 11:38:02;;;;;;;6.03;2.83;;;;;;;14.31;41.31;98762.31;4965444;28;20043;-66
2021/11/10 11:40:32;;;;;;;3.78;2.85;;;;;;;13.92;41.70;98654.41;4965656;28;20340;-66
2021/11/10 11:43:01;;;;;;;3.28;2.53;;;;;;;14.40;41.92;98699.69;4965602;28;20264;-65